Time;durP1;ratioP1;P1;durP2;ratioP2;P2;SDS_P1;SDS_P2;PMS_P1;PMS_P2;Temp;Humidity;BMP_temperature;BMP_pressure;BME280_temperature;BME280_humidity;BME280_pressure;Samples;Min_cycle;Max_cycle;Signal;HPM_P1;HPM_P2
2021/12/05 00:20:10;;;;;;;2.30;1.10;;;;;;;10.22;68.11;99883.79;1660525;85;21035;-63
2021/12/05 00:22:33;;;;;;;2.17;1.00;;;;;;;10.28;68.19;99881.77;1660689;85;22438;-67
2021/12/05 00:24:58;;;;;;;1.65;0.70;;;;;;;10.35;67.59;99883.92;1660397;85;21373;-61
2021/12/05 00:27:37;;;;;;;2.50;1.00;;;;;;;10.51;65.79;99884.63;1660275;86;21506;-60
2021/12/05 00:41:09;;;;;;;2.70;1.37;;;;;;;10.35;66.81;99863.59;1659853;86;21068;-62
2021/12/05 00:54:50;;;;;;;1.65;0.70;;;;;;;9.86;71.01;99860.50;1638975;86;21157;-60
2021/12/05 00:56:23;;;;;;;2.27;0.60;;;;;;;9.80;71.72;99852.92;1646743;86;21078;-61
2021/12/05 01:01:49;;;;;;;1.57;0.60;;;;;;;10.12;71.25;99861.20;1660109;86;21143;-60
2021/12/05 01:14:35;;;;;;;1.30;0.62;;;;;;;9.95;70.30;99843.23;1654474;85;21148;-59
2021/12/05 01:17:00;;;;;;;1.32;0.60;;;;;;;9.98;70.81;99849.37;1653997;85;21035;-65
2021/12/05 01:19:31;;;;;;;1.82;0.75;;;;;;;10.21;68.74;99844.42;1654471;85;21035;-60
2021/12/05 01:22:05;;;;;;;2.00;0.80;;;;;;;10.53;66.66;99852.17;1654753;85;21564;-60
2021/12/05 01:27:26;;;;;;;1.47;0.70;;;;;;;10.12;70.13;99857.30;1654372;85;21134;-61
2021/12/05 01:29:53;;;;;;;1.20;0.50;;;;;;;9.83;71.42;99851.25;1652539;85;21035;-60
2021/12/05 01:43:19;;;;;;;2.15;1.00;;;;;;;10.05;71.32;99846.82;1653961;85;21117;-62
2021/12/05 01:56:13;;;;;;;2.33;1.00;;;;;;;9.63;76.81;99834.17;1660903;85;22446;-65
2021/12/05 01:58:49;;;;;;;2.33;1.07;;;;;;;9.73;74.78;99829.44;1640930;85;21106;-60
2021/12/05 02:33:31;;;;;;;4.05;2.40;;;;;;;9.52;75.43;99856.79;1659273;86;21137;-62
2021/12/05 02:41:12;;;;;;;4.87;3.00;;;;;;;9.55;77.59;99846.52;1659994;86;20992;-63
2021/12/05 02:44:00;;;;;;;6.40;3.50;;;;;;;9.33;78.76;99835.30;1658812;86;20974;-62
2021/12/05 02:46:05;;;;;;;5.00;2.98;;;;;;;9.81;74.25;99831.13;1660174;86;21164;-61
2021/12/05 02:48:35;;;;;;;6.45;3.40;;;;;;;9.89;72.74;99829.69;1660300;86;21552;-61
2021/12/05 02:51:13;;;;;;;4.85;3.40;;;;;;;10.13;69.82;99822.44;1660142;86;21002;-60
2021/12/05 02:53:51;;;;;;;5.03;2.75;;;;;;;10.47;65.63;99817.25;1659773;86;21529;-60
2021/12/05 02:56:16;;;;;;;6.12;3.50;;;;;;;10.41;65.60;99803.68;1639211;86;21005;-61
2021/12/05 02:58:48;;;;;;;5.53;2.80;;;;;;;9.96;67.30;99811.02;1659400;86;21118;-62
2021/12/05 03:01:23;;;;;;;4.90;2.92;;;;;;;10.10;67.00;99813.69;1659401;85;21089;-64
2021/12/05 03:03:49;;;;;;;4.83;2.75;;;;;;;10.31;65.76;99824.09;1660021;85;21122;-64
2021/12/05 03:06:23;;;;;;;4.75;2.70;;;;;;;10.41;64.54;99810.19;1651521;85;20971;-62
2021/12/05 03:09:07;;;;;;;4.67;2.42;;;;;;;10.51;63.96;99811.16;1653935;85;21024;-64
2021/12/05 03:11:35;;;;;;;4.30;2.72;;;;;;;10.71;61.98;99809.93;1652345;85;21228;-64
2021/12/05 03:14:02;;;;;;;4.72;2.80;;;;;;;10.72;60.64;99814.17;1654693;85;20972;-65
2021/12/05 03:16:31;;;;;;;5.08;2.83;;;;;;;10.59;60.30;99811.49;1653766;85;21019;-62
2021/12/05 03:18:59;;;;;;;5.22;3.02;;;;;;;9.99;65.80;99811.11;1654931;85;21094;-61
2021/12/05 03:21:26;;;;;;;4.92;2.37;;;;;;;10.06;66.09;99807.26;1654710;85;21518;-61
2021/12/05 03:23:55;;;;;;;4.33;2.33;;;;;;;10.08;64.19;99794.87;1655110;85;21160;-61
2021/12/05 03:26:25;;;;;;;6.97;2.65;;;;;;;10.19;64.52;99800.34;1654211;85;21526;-65
2021/12/05 03:28:57;;;;;;;4.00;2.40;;;;;;;10.08;63.45;99788.36;1654861;85;22117;-61
2021/12/05 03:31:28;;;;;;;3.90;2.30;;;;;;;9.49;67.72;99792.91;1654656;85;21729;-63
2021/12/05 03:33:56;;;;;;;3.90;2.42;;;;;;;9.88;65.88;99799.92;1654855;85;21053;-61
2021/12/05 03:36:25;;;;;;;4.70;2.70;;;;;;;9.94;65.16;99799.97;1653603;85;21092;-66
2021/12/05 03:38:55;;;;;;;4.67;2.55;;;;;;;10.19;63.81;99798.21;1654946;85;22288;-60
2021/12/05 03:41:22;;;;;;;5.45;2.80;;;;;;;10.17;62.82;99802.83;1654571;85;20965;-60
2021/12/05 03:43:52;;;;;;;4.50;2.72;;;;;;;10.06;63.26;99792.44;1654797;85;21020;-61
2021/12/05 03:46:20;;;;;;;4.40;2.52;;;;;;;9.89;64.07;99790.63;1650925;85;21067;-61
2021/12/05 03:48:51;;;;;;;5.30;3.17;;;;;;;9.94;64.02;99776.54;1653879;85;21158;-63
2021/12/05 03:51:19;;;;;;;5.37;2.95;;;;;;;10.45;61.67;99774.96;1651480;85;21109;-62
2021/12/05 03:53:48;;;;;;;4.85;2.70;;;;;;;10.64;58.90;99766.09;1654618;85;22227;-62
2021/12/05 03:56:17;;;;;;;4.97;2.83;;;;;;;10.51;59.55;99762.14;1613111;86;21568;-62
2021/12/05 03:58:45;;;;;;;4.90;3.10;;;;;;;9.91;61.63;99774.31;1653214;86;21086;-66
2021/12/05 04:01:13;;;;;;;4.08;2.30;;;;;;;10.21;60.25;99774.89;1683526;80;21508;-64
2021/12/05 04:03:42;;;;;;;4.22;2.42;;;;;;;10.55;58.49;99793.33;1687868;84;21493;-62
2021/12/05 04:06:11;;;;;;;5.35;2.67;;;;;;;10.15;60.57;99775.68;1720383;82;21078;-62
2021/12/05 04:08:42;;;;;;;4.85;2.87;;;;;;;10.32;59.30;99784.50;1719913;83;22433;-62
2021/12/05 04:11:14;;;;;;;4.70;3.25;;;;;;;10.54;58.84;99775.59;1688359;84;21090;-61
2021/12/05 04:13:43;;;;;;;5.50;2.65;;;;;;;10.52;58.09;99776.27;1721043;82;22383;-62
2021/12/05 04:16:10;;;;;;;5.20;2.90;;;;;;;10.67;57.12;99774.83;1687450;84;21075;-62
2021/12/05 04:18:37;;;;;;;3.98;2.47;;;;;;;10.43;57.16;99780.85;1688019;83;21109;-64
2021/12/05 04:21:04;;;;;;;4.40;2.47;;;;;;;10.24;58.02;99781.02;1688070;84;21507;-62
2021/12/05 04:23:31;;;;;;;5.60;1.92;;;;;;;10.41;57.95;99772.41;1720786;83;21008;-61
2021/12/05 04:25:59;;;;;;;4.53;2.67;;;;;;;10.38;57.40;99781.94;1716595;81;21211;-62
2021/12/05 04:28:27;;;;;;;5.53;3.20;;;;;;;10.70;55.88;99779.16;1702441;82;20951;-65
2021/12/05 04:30:54;;;;;;;5.20;2.90;;;;;;;10.70;55.48;99784.88;1687923;84;21145;-62
2021/12/05 04:33:23;;;;;;;4.72;2.65;;;;;;;10.75;55.12;99788.19;1688199;84;20989;-63
2021/12/05 04:35:50;;;;;;;5.17;3.00;;;;;;;10.97;54.50;99797.48;1682540;84;20974;-63
2021/12/05 04:38:18;;;;;;;5.20;3.25;;;;;;;11.37;53.24;99778.80;1720333;82;21191;-65
2021/12/05 04:40:49;;;;;;;4.60;2.67;;;;;;;10.92;54.29;99791.56;1687607;84;21436;-65
2021/12/05 04:43:17;;;;;;;4.72;2.72;;;;;;;11.40;53.23;99785.41;1677885;84;22076;-61
2021/12/05 04:45:44;;;;;;;4.47;2.85;;;;;;;10.80;54.33;99800.95;1691349;84;21046;-62
2021/12/05 04:48:13;;;;;;;3.92;2.65;;;;;;;10.69;55.33;99808.03;1688167;84;21008;-65
2021/12/05 04:50:41;;;;;;;5.90;2.90;;;;;;;10.91;54.88;99805.61;1720044;83;21211;-69
2021/12/05 04:53:08;;;;;;;4.42;2.27;;;;;;;10.88;54.42;99819.03;1715788;82;21010;-64
2021/12/05 04:55:36;;;;;;;4.75;2.87;;;;;;;10.93;53.98;99821.84;1721035;82;20967;-62
2021/12/05 04:58:06;;;;;;;5.05;2.83;;;;;;;11.22;53.27;99825.15;1721189;82;20956;-63
2021/12/05 05:00:41;;;;;;;6.53;3.77;;;;;;;11.33;52.04;99821.96;1720671;82;20904;-68
2021/12/05 05:03:09;;;;;;;4.67;2.80;;;;;;;11.31;51.79;99824.45;1720898;83;21165;-64
2021/12/05 05:05:41;;;;;;;4.72;2.98;;;;;;;11.13;51.96;99824.50;1721172;82;20947;-64
2021/12/05 05:08:06;;;;;;;5.97;3.33;;;;;;;11.43;51.38;99825.47;1721230;82;21003;-64
2021/12/05 05:10:33;;;;;;;6.10;3.95;;;;;;;11.40;51.17;99825.86;1687841;84;21525;-72
2021/12/05 05:13:00;;;;;;;7.87;4.22;;;;;;;11.43;50.98;99821.05;1720586;83;21042;-63
2021/12/05 05:15:30;;;;;;;7.20;4.90;;;;;;;11.63;50.79;99826.78;1688366;84;21157;-66
2021/12/05 05:17:59;;;;;;;8.35;4.85;;;;;;;11.67;50.62;99829.33;1720689;83;21082;-62
2021/12/05 05:20:41;;;;;;;7.92;4.97;;;;;;;11.70;50.92;99826.30;1688865;84;21648;-65
2021/12/05 05:39:38;;;;;;;7.20;3.95;;;;;;;10.54;52.19;99829.02;1688489;84;21025;-62
2021/12/05 05:44:41;;;;;;;10.03;6.20;;;;;;;9.36;57.33;99835.73;1711283;81;21082;-65
2021/12/05 05:52:20;;;;;;;8.93;5.25;;;;;;;9.55;62.41;99849.12;1688449;84;21132;-62
2021/12/05 05:54:49;;;;;;;8.00;4.67;;;;;;;9.76;61.71;99846.48;1712019;82;21147;-70
2021/12/05 05:57:23;;;;;;;7.08;4.22;;;;;;;9.92;60.52;99848.81;1710319;82;21018;-63
2021/12/05 05:59:59;;;;;;;6.30;3.80;;;;;;;9.88;61.02;99851.48;1707969;82;20904;-64
2021/12/05 06:04:46;;;;;;;9.00;5.35;;;;;;;9.67;62.20;99861.44;1689524;83;21056;-67
2021/12/05 06:07:15;;;;;;;11.78;6.55;;;;;;;9.38;64.75;99863.65;1686376;83;22477;-64
2021/12/05 06:09:43;;;;;;;10.85;6.47;;;;;;;9.62;64.08;99856.47;1688031;84;21042;-65
2021/12/05 06:12:10;;;;;;;10.43;5.55;;;;;;;9.57;64.25;99862.73;1720547;83;21592;-64
2021/12/05 06:14:38;;;;;;;9.05;5.47;;;;;;;9.64;64.55;99858.39;1687667;84;21596;-71
2021/12/05 06:17:05;;;;;;;7.70;3.80;;;;;;;9.33;65.19;99856.91;1720480;82;21429;-67
2021/12/05 06:19:34;;;;;;;6.30;3.70;;;;;;;9.32;67.66;99864.87;1685496;84;21106;-64
2021/12/05 06:22:01;;;;;;;6.35;4.10;;;;;;;9.41;65.52;99862.48;1686796;84;21114;-64
2021/12/05 06:24:29;;;;;;;7.97;4.58;;;;;;;9.50;64.72;99860.86;1724784;81;21063;-64
2021/12/05 06:26:59;;;;;;;9.18;5.55;;;;;;;9.70;64.18;99861.56;1703186;83;20935;-63
2021/12/05 06:29:30;;;;;;;9.75;6.42;;;;;;;9.80;63.99;99852.92;1696329;83;21066;-64
2021/12/05 06:32:14;;;;;;;8.10;5.12;;;;;;;10.19;61.28;99860.25;1692507;83;21166;-64
2021/12/05 06:39:50;;;;;;;8.48;5.33;;;;;;;10.56;58.01;99879.63;1710684;81;21019;-65
2021/12/05 06:47:33;;;;;;;9.38;6.08;;;;;;;11.05;55.20;99885.18;1719084;82;20995;-65
2021/12/05 06:50:01;;;;;;;11.48;6.83;;;;;;;11.01;55.22;99882.66;1688480;84;20932;-64
2021/12/05 06:52:28;;;;;;;10.98;7.12;;;;;;;11.13;55.07;99879.79;1719514;83;21529;-68
2021/12/05 06:54:56;;;;;;;13.68;8.03;;;;;;;11.13;54.65;99876.68;1687141;84;21169;-65
2021/12/05 06:57:23;;;;;;;11.57;7.35;;;;;;;11.07;55.06;99883.20;1721704;82;21153;-65
2021/12/05 06:59:50;;;;;;;13.20;8.20;;;;;;;11.33;54.45;99885.09;1688662;84;20971;-67
2021/12/05 07:02:18;;;;;;;11.93;7.58;;;;;;;11.22;54.32;99895.59;1720713;83;20904;-70
2021/12/05 07:07:25;;;;;;;13.45;8.10;;;;;;;11.20;53.95;99896.27;1688418;84;21004;-65
2021/12/05 07:09:51;;;;;;;14.25;9.45;;;;;;;11.31;53.64;99897.52;1688370;84;21160;-64
2021/12/05 07:14:51;;;;;;;13.20;8.50;;;;;;;11.36;53.68;99886.78;1687628;84;21003;-65
2021/12/05 07:25:24;;;;;;;11.73;7.92;;;;;;;11.43;53.57;99886.80;1696463;83;21011;-63
2021/12/05 07:42:23;;;;;;;13.40;7.90;;;;;;;11.61;52.48;99907.13;1721092;82;21133;-62
2021/12/05 07:43:59;;;;;;;10.08;7.37;;;;;;;12.08;51.09;99906.18;1704387;83;20943;-63
2021/12/05 07:46:26;;;;;;;11.93;7.58;;;;;;;11.95;51.21;99901.48;1688561;84;21107;-63
2021/12/05 07:48:53;;;;;;;10.80;7.70;;;;;;;12.06;51.03;99889.13;1724188;81;21148;-64
2021/12/05 07:51:26;;;;;;;12.15;8.53;;;;;;;11.80;51.34;99898.52;1679252;83;21102;-62
2021/12/05 07:54:00;;;;;;;14.07;8.65;;;;;;;11.71;51.50;99898.42;1684523;84;21564;-63
2021/12/05 07:56:47;;;;;;;14.80;8.70;;;;;;;11.53;51.85;99900.28;1679176;84;20948;-63
2021/12/05 07:59:21;;;;;;;14.18;8.90;;;;;;;11.42;52.57;99895.13;1686134;84;21102;-63
2021/12/05 08:15:40;;;;;;;14.23;9.00;;;;;;;12.26;51.17;99906.89;1669942;83;21561;-63
2021/12/05 08:18:02;;;;;;;14.00;8.85;;;;;;;12.10;51.18;99915.94;1676042;84;21102;-61
2021/12/05 08:20:37;;;;;;;16.90;9.93;;;;;;;12.25;50.79;99911.82;1710098;81;21078;-62
2021/12/05 08:23:05;;;;;;;13.60;9.00;;;;;;;12.04;51.24;99912.02;1688218;84;20996;-76
2021/12/05 08:25:35;;;;;;;12.07;8.00;;;;;;;11.96;51.40;99915.63;1719393;83;20963;-62
2021/12/05 08:28:31;;;;;;;12.10;8.88;;;;;;;12.08;51.08;99909.30;1687585;84;21241;-61
2021/12/05 08:30:54;;;;;;;12.15;8.45;;;;;;;11.58;52.20;99910.13;1687647;84;20995;-71
2021/12/05 09:20:35;;;;;;;20.27;14.93;;;;;;;12.29;50.94;99903.08;1690573;84;21014;-61
2021/12/05 10:03:06;;;;;;;11.90;7.95;;;;;;;9.22;71.85;99897.20;1684049;84;21116;-60
2021/12/05 10:11:17;;;;;;;12.07;8.08;;;;;;;9.10;76.45;99897.36;1691657;83;20959;-61
2021/12/05 10:16:27;;;;;;;13.88;9.60;;;;;;;9.29;75.51;99892.08;1646196;86;21083;-60
2021/12/05 10:38:16;;;;;;;12.55;8.63;;;;;;;9.13;70.54;99880.56;1644399;85;21121;-71
2021/12/05 10:40:54;;;;;;;10.08;7.08;;;;;;;9.12;71.03;99884.16;1642935;85;21541;-64
2021/12/05 10:43:19;;;;;;;8.93;6.25;;;;;;;9.21;70.41;99889.59;1622992;86;21340;-73
2021/12/05 10:45:56;;;;;;;11.78;7.30;;;;;;;9.39;69.79;99904.77;1643296;85;21098;-72
2021/12/05 10:48:32;;;;;;;13.35;10.20;;;;;;;9.30;69.69;99924.89;1643188;86;21132;-66
2021/12/05 10:51:12;;;;;;;11.53;9.80;;;;;;;9.28;69.92;99932.55;1642692;86;21075;-63
2021/12/05 10:54:13;;;;;;;12.60;7.30;;;;;;;9.26;69.18;99940.05;1616857;86;22349;-75
2021/12/05 10:56:49;;;;;;;11.20;7.28;;;;;;;9.24;69.25;99943.34;1655219;84;21167;-72
2021/12/05 10:59:26;;;;;;;12.73;7.40;;;;;;;8.88;72.06;99938.07;1655381;84;21109;-73
2021/12/05 11:01:56;;;;;;;11.43;6.60;;;;;;;8.93;71.59;99921.93;1648188;84;21034;-65
2021/12/05 11:04:33;;;;;;;12.90;7.65;;;;;;;8.82;72.22;99926.28;1622728;86;21553;-74
2021/12/05 11:07:05;;;;;;;14.10;8.15;;;;;;;8.69;74.17;99919.12;1638388;86;21028;-65
2021/12/05 11:09:39;;;;;;;11.00;7.25;;;;;;;8.70;73.52;99920.72;1641862;85;21143;-65
2021/12/05 11:12:19;;;;;;;10.00;7.20;;;;;;;8.77;72.47;99919.02;1631946;85;21055;-71
2021/12/05 11:15:00;;;;;;;34.10;30.68;;;;;;;8.83;72.81;99927.42;1651798;85;21602;-64
2021/12/05 11:17:33;;;;;;;28.15;23.83;;;;;;;8.92;72.50;99929.42;1682872;83;21012;-62
2021/12/05 11:20:09;;;;;;;12.60;8.48;;;;;;;8.89;74.33;99931.87;1683945;83;20979;-63
2021/12/05 11:22:42;;;;;;;12.23;8.18;;;;;;;8.81;74.69;99914.28;1611106;86;21180;-63
2021/12/05 11:25:19;;;;;;;9.78;7.22;;;;;;;8.59;72.39;99900.38;1640634;86;21556;-64
2021/12/05 11:27:49;;;;;;;11.68;8.05;;;;;;;8.47;78.32;99908.61;1609825;87;21087;-64
2021/12/05 11:30:32;;;;;;;9.73;7.35;;;;;;;8.70;75.35;99907.23;1632686;86;21098;-66
2021/12/05 11:33:07;;;;;;;10.35;7.00;;;;;;;8.82;73.37;99911.98;1675992;84;21086;-62
2021/12/05 11:35:43;;;;;;;11.55;7.87;;;;;;;8.70;73.84;99915.53;1643486;86;21883;-68
2021/12/05 11:38:23;;;;;;;14.00;10.10;;;;;;;8.40;75.18;99918.09;1644018;86;21022;-63
2021/12/05 11:41:10;;;;;;;11.57;7.60;;;;;;;8.69;75.81;99910.02;1640661;86;21032;-73
2021/12/05 11:43:44;;;;;;;13.62;8.98;;;;;;;8.60;77.43;99912.38;1640916;85;21153;-70
2021/12/05 11:46:16;;;;;;;11.57;7.50;;;;;;;8.64;75.59;99907.17;1641000;86;21086;-62
2021/12/05 11:48:48;;;;;;;9.98;7.65;;;;;;;8.73;74.80;99900.39;1607191;87;21130;-62
2021/12/05 11:51:47;;;;;;;10.00;6.95;;;;;;;8.62;75.97;99907.83;1631816;86;22518;-62
2021/12/05 11:54:26;;;;;;;44.40;30.20;;;;;;;8.68;76.25;99922.71;1623857;86;21145;-64
2021/12/05 11:57:19;;;;;;;18.05;12.18;;;;;;;8.93;74.70;99937.53;1632960;86;21142;-63
2021/12/05 11:59:52;;;;;;;13.20;9.53;;;;;;;9.07;73.63;99948.42;1650515;85;21118;-67
2021/12/05 12:02:33;;;;;;;11.40;7.50;;;;;;;9.28;71.15;99953.36;1644030;86;21197;-64
2021/12/05 12:05:08;;;;;;;9.85;6.75;;;;;;;9.18;73.35;99963.56;1689295;83;21546;-71
2021/12/05 12:07:43;;;;;;;10.85;6.75;;;;;;;8.94;73.30;99972.46;1688391;83;21074;-63
2021/12/05 12:10:42;;;;;;;9.43;6.95;;;;;;;8.72;75.65;99979.34;1692559;83;21055;-63
2021/12/05 12:13:15;;;;;;;11.03;7.15;;;;;;;8.48;76.48;99988.14;1694594;84;21599;-63
2021/12/05 12:15:43;;;;;;;11.68;7.33;;;;;;;8.91;75.04;99991.00;1689693;83;21193;-62
2021/12/05 12:18:26;;;;;;;12.60;8.40;;;;;;;8.86;75.53;99997.22;1690256;83;22310;-73
2021/12/05 12:20:48;;;;;;;11.05;7.60;;;;;;;9.03;74.80;100005.67;1680360;83;21102;-76
2021/12/05 12:23:16;;;;;;;11.08;7.30;;;;;;;9.47;70.81;99997.02;1676367;83;21141;-63
2021/12/05 12:25:46;;;;;;;11.40;7.08;;;;;;;9.19;72.29;99998.98;1676546;84;21040;-62
2021/12/05 12:28:13;;;;;;;11.85;7.47;;;;;;;9.48;69.88;100000.75;1688439;83;21144;-68
2021/12/05 12:30:44;;;;;;;14.38;8.45;;;;;;;9.98;65.47;100000.39;1698263;83;22355;-74
2021/12/05 12:33:15;;;;;;;10.75;6.90;;;;;;;10.19;62.34;100003.52;1695033;84;20998;-62
2021/12/05 12:35:47;;;;;;;66.35;46.85;;;;;;;10.42;60.17;100009.05;1693881;83;21584;-74
2021/12/05 12:38:17;;;;;;;;;;;;;;;9.43;64.62;100023.08;1691667;84;21095;-65
2021/12/05 12:40:54;;;;;;;13.88;9.55;;;;;;;9.51;65.55;100041.22;1692210;84;21163;-62
2021/12/05 12:43:52;;;;;;;15.72;8.53;;;;;;;9.65;63.91;100049.98;1688108;83;21078;-65
2021/12/05 12:46:32;;;;;;;10.28;6.62;;;;;;;10.00;63.10;100052.30;1687251;84;21095;-76
2021/12/05 12:49:22;;;;;;;12.75;7.10;;;;;;;10.16;60.80;100064.28;1697056;83;21046;-63
2021/12/05 12:52:07;;;;;;;9.88;7.00;;;;;;;10.27;59.75;100077.35;1695724;83;21041;-66
2021/12/05 12:54:58;;;;;;;9.40;6.25;;;;;;;10.42;59.01;100065.88;1688243;83;21148;-65
2021/12/05 12:57:33;;;;;;;10.13;6.20;;;;;;;10.76;57.23;100053.94;1694455;84;21438;-62
2021/12/05 13:00:13;;;;;;;20.88;12.65;;;;;;;10.53;57.85;100053.31;1690409;83;20884;-77
2021/12/05 13:11:21;;;;;;;80.03;43.52;;;;;;;11.01;55.29;100069.14;1687236;84;20999;-65
2021/12/05 13:14:05;;;;;;;503.65;303.42;;;;;;;11.03;55.46;100065.86;1719878;82;21082;-70
2021/12/05 13:16:35;;;;;;;95.60;58.85;;;;;;;11.04;54.96;100059.14;1711299;81;21027;-64
2021/12/05 13:19:15;;;;;;;68.75;41.63;;;;;;;11.01;55.77;100068.64;1685110;82;20955;-76
2021/12/05 13:21:45;;;;;;;82.45;49.38;;;;;;;11.07;55.25;100074.41;1678992;84;21157;-74
2021/12/05 13:24:29;;;;;;;102.97;58.90;;;;;;;10.78;56.28;100088.93;1720401;81;21179;-61
2021/12/05 13:27:01;;;;;;;248.78;137.32;;;;;;;10.81;56.65;100088.56;1719170;81;20951;-63
2021/12/05 13:29:37;;;;;;;187.90;92.62;;;;;;;11.00;56.03;100093.12;1717238;82;21587;-67
2021/12/05 13:32:10;;;;;;;171.98;79.80;;;;;;;10.85;56.48;100094.51;1680238;84;21098;-61
2021/12/05 13:34:50;;;;;;;335.27;146.85;;;;;;;10.65;58.29;100105.27;1707125;81;21142;-61
2021/12/05 13:37:27;;;;;;;42.80;28.70;;;;;;;10.71;58.48;100110.53;1701656;82;21016;-72
2021/12/05 13:40:15;;;;;;;230.22;106.65;;;;;;;10.42;59.84;100116.69;1721042;81;20988;-66
2021/12/05 13:42:48;;;;;;;96.35;49.33;;;;;;;10.54;59.98;100115.70;1679513;83;21513;-77
2021/12/05 13:45:30;;;;;;;471.95;213.37;;;;;;;10.56;59.95;100115.00;1679846;84;21912;-70
2021/12/05 13:48:05;;;;;;;1158.15;583.07;;;;;;;10.54;60.22;100121.41;1682045;84;21207;-62
2021/12/05 13:50:43;;;;;;;387.63;195.07;;;;;;;10.70;59.86;100119.84;1709585;81;21070;-67
2021/12/05 13:53:16;;;;;;;480.05;276.45;;;;;;;10.86;59.07;100119.58;1720912;81;21513;-65
2021/12/05 13:56:02;;;;;;;1336.33;584.20;;;;;;;11.01;58.53;100125.22;1718966;82;20975;-61
2021/12/05 13:58:45;;;;;;;238.82;153.60;;;;;;;11.00;58.69;100127.53;1719645;82;21176;-64
2021/12/05 14:01:38;;;;;;;489.07;372.40;;;;;;;11.05;58.13;100115.52;1683244;84;21206;-66
2021/12/05 14:04:21;;;;;;;175.65;118.40;;;;;;;10.98;58.44;100114.66;1718956;81;21074;-69
2021/12/05 14:07:06;;;;;;;221.93;146.50;;;;;;;10.90;58.74;100114.30;1722067;81;21116;-68
2021/12/05 14:09:43;;;;;;;241.93;148.70;;;;;;;10.78;59.92;100124.13;1719675;81;21591;-66
2021/12/05 14:12:24;;;;;;;41.00;26.15;;;;;;;10.69;60.27;100119.05;1715261;81;21042;-73
2021/12/05 14:14:55;;;;;;;84.72;48.20;;;;;;;10.86;59.76;100123.99;1719747;81;21219;-65
2021/12/05 14:17:26;;;;;;;204.97;100.22;;;;;;;10.95;58.93;100120.28;1713029;81;20938;-67
2021/12/05 14:20:01;;;;;;;49.03;35.68;;;;;;;10.87;58.82;100129.04;1720491;81;21540;-66
2021/12/05 14:22:32;;;;;;;29.45;19.10;;;;;;;10.81;59.23;100132.38;1719990;81;21580;-62
2021/12/05 14:25:08;;;;;;;76.62;69.60;;;;;;;11.04;58.40;100124.84;1721795;81;21030;-62
2021/12/05 14:27:38;;;;;;;22.85;14.75;;;;;;;11.15;57.83;100124.33;1719264;81;21090;-65
2021/12/05 14:30:09;;;;;;;17.32;12.37;;;;;;;11.02;57.15;100122.41;1717814;81;22185;-76
2021/12/05 14:32:39;;;;;;;15.53;11.53;;;;;;;10.76;58.17;100117.81;1715188;81;22428;-62
2021/12/05 14:35:11;;;;;;;21.00;14.20;;;;;;;10.67;59.00;100113.20;1715634;81;20895;-62
2021/12/05 14:37:40;;;;;;;22.00;14.70;;;;;;;11.01;57.04;100108.27;1713595;81;21027;-61
2021/12/05 14:40:14;;;;;;;24.37;14.93;;;;;;;10.98;56.30;100124.29;1708368;81;21171;-66
2021/12/05 14:42:45;;;;;;;25.80;16.95;;;;;;;10.79;56.38;100129.14;1714606;81;21046;-61
2021/12/05 14:45:21;;;;;;;20.05;12.88;;;;;;;10.53;56.68;100140.16;1714033;81;20988;-74
2021/12/05 14:47:50;;;;;;;16.77;14.20;;;;;;;10.55;57.26;100152.98;1716454;81;21153;-77
2021/12/05 14:50:24;;;;;;;30.27;17.75;;;;;;;10.52;57.05;100153.36;1718825;81;21173;-61
2021/12/05 14:52:55;;;;;;;25.62;15.80;;;;;;;10.43;57.29;100148.27;1722853;81;21125;-66
2021/12/05 14:55:25;;;;;;;25.40;18.00;;;;;;;10.63;57.00;100144.55;1727142;81;21030;-63
2021/12/05 14:57:59;;;;;;;19.48;14.47;;;;;;;10.95;55.92;100149.77;1727276;81;21627;-68
2021/12/05 15:00:33;;;;;;;19.37;13.32;;;;;;;10.31;56.81;100145.03;1723902;81;21010;-62
2021/12/05 15:03:05;;;;;;;15.48;10.68;;;;;;;10.81;56.62;100148.03;1719073;81;21075;-65
2021/12/05 15:05:33;;;;;;;15.78;13.13;;;;;;;9.07;61.68;100155.63;1705874;82;21122;-70
2021/12/05 15:08:06;;;;;;;15.45;11.97;;;;;;;9.91;64.53;100151.83;1692007;84;21114;-61
2021/12/05 15:10:34;;;;;;;15.72;11.65;;;;;;;10.33;61.56;100148.24;1689098;83;21064;-62
2021/12/05 15:13:03;;;;;;;17.87;11.50;;;;;;;8.90;70.59;100164.03;1682685;84;21102;-62
2021/12/05 15:15:31;;;;;;;20.85;15.20;;;;;;;8.85;76.29;100171.55;1674644;84;21077;-71
2021/12/05 15:17:58;;;;;;;17.02;11.88;;;;;;;8.93;77.17;100168.89;1687723;83;22211;-64
2021/12/05 15:20:28;;;;;;;18.45;12.73;;;;;;;8.77;80.48;100171.12;1680904;83;20984;-64
2021/12/05 15:23:04;;;;;;;18.62;14.30;;;;;;;9.09;78.92;100166.64;1677272;84;21006;-63
2021/12/05 15:25:31;;;;;;;20.45;14.45;;;;;;;9.11;78.25;100177.69;1670889;84;21497;-72
2021/12/05 15:27:58;;;;;;;19.10;13.53;;;;;;;9.13;78.82;100184.81;1676550;84;21101;-63
2021/12/05 15:30:33;;;;;;;21.48;14.83;;;;;;;9.09;79.63;100191.34;1672739;84;21613;-64
2021/12/05 15:33:04;;;;;;;17.10;13.00;;;;;;;9.08;82.10;100193.63;1681887;83;21604;-63
2021/12/05 15:35:33;;;;;;;17.23;12.13;;;;;;;9.20;81.87;100187.03;1691447;84;21512;-73
2021/12/05 15:38:11;;;;;;;14.40;10.60;;;;;;;9.26;81.10;100187.64;1692989;84;21309;-61
2021/12/05 15:40:43;;;;;;;15.35;10.03;;;;;;;9.31;80.27;100196.20;1691132;83;20944;-66
2021/12/05 15:43:17;;;;;;;17.05;11.97;;;;;;;9.26;80.46;100197.55;1697466;83;21134;-64
2021/12/05 15:45:46;;;;;;;15.65;10.53;;;;;;;9.15;80.45;100194.56;1683268;84;21392;-61
2021/12/05 15:48:24;;;;;;;70.05;42.70;;;;;;;8.88;84.33;100198.00;1684598;84;21014;-71
2021/12/05 15:50:51;;;;;;;32.93;28.27;;;;;;;8.95;84.46;100197.63;1690794;84;21063;-62
2021/12/05 15:53:18;;;;;;;39.95;35.63;;;;;;;8.81;86.50;100190.58;1677579;83;20958;-62
2021/12/05 15:55:57;;;;;;;20.90;17.42;;;;;;;8.72;88.85;100192.92;1705805;83;21550;-64
2021/12/05 15:58:31;;;;;;;22.98;20.48;;;;;;;8.88;86.96;100194.60;1695066;83;20951;-68
2021/12/05 16:01:18;;;;;;;15.20;11.48;;;;;;;8.94;87.79;100198.62;1676887;84;21058;-70
2021/12/05 16:03:54;;;;;;;15.58;11.08;;;;;;;8.95;85.62;100194.23;1693817;84;20983;-68
2021/12/05 16:06:34;;;;;;;15.50;10.95;;;;;;;8.97;85.52;100181.36;1703466;83;22105;-61
2021/12/05 16:09:21;;;;;;;16.55;13.15;;;;;;;9.11;83.18;100178.99;1707933;83;21283;-61
2021/12/05 16:11:50;;;;;;;15.40;11.08;;;;;;;9.17;82.13;100186.91;1702533;83;21038;-64
2021/12/05 16:14:30;;;;;;;15.98;10.88;;;;;;;9.30;82.37;100182.40;1695258;82;21502;-63
2021/12/05 16:16:58;;;;;;;17.40;14.83;;;;;;;9.28;80.98;100179.18;1704737;82;21007;-64
2021/12/05 16:19:26;;;;;;;12.58;9.78;;;;;;;9.32;79.42;100180.91;1663316;85;21019;-63
2021/12/05 16:21:53;;;;;;;19.10;13.80;;;;;;;9.36;78.86;100179.10;1662265;86;21168;-66
2021/12/05 16:24:21;;;;;;;34.27;30.55;;;;;;;9.40;77.80;100168.66;1662554;84;22109;-62
2021/12/05 16:26:50;;;;;;;15.98;11.85;;;;;;;9.36;78.33;100166.09;1654220;84;21033;-62
2021/12/05 16:29:22;;;;;;;15.65;12.40;;;;;;;9.37;78.89;100161.20;1658211;85;21031;-69
2021/12/05 16:31:57;;;;;;;16.17;12.33;;;;;;;9.25;79.72;100150.92;1662630;85;21099;-67
2021/12/05 16:34:27;;;;;;;19.15;13.98;;;;;;;9.33;79.27;100149.53;1653821;85;21787;-64
2021/12/05 16:37:04;;;;;;;18.67;12.82;;;;;;;9.65;75.40;100136.66;1663304;85;20985;-70
2021/12/05 16:39:44;;;;;;;17.30;11.15;;;;;;;9.45;76.84;100140.80;1662545;85;21085;-63
2021/12/05 16:42:15;;;;;;;15.88;10.75;;;;;;;9.41;76.93;100146.84;1662262;85;21079;-62
2021/12/05 16:44:44;;;;;;;17.67;12.35;;;;;;;9.38;79.17;100149.80;1659007;85;21027;-66
2021/12/05 16:47:14;;;;;;;19.17;11.85;;;;;;;9.38;79.24;100140.70;1661105;85;21147;-69
2021/12/05 16:49:46;;;;;;;17.17;11.12;;;;;;;9.38;78.11;100134.19;1663377;85;22552;-63
2021/12/05 16:52:21;;;;;;;16.75;11.12;;;;;;;9.65;75.33;100134.56;1662060;85;21044;-63
2021/12/05 16:54:52;;;;;;;16.02;10.15;;;;;;;9.70;73.69;100134.35;1662208;85;21003;-71
2021/12/05 16:57:32;;;;;;;17.82;11.28;;;;;;;9.47;75.37;100120.59;1667756;85;21122;-62
2021/12/05 17:00:02;;;;;;;20.80;17.55;;;;;;;9.82;72.54;100122.98;1663325;85;21172;-63
2021/12/05 17:02:50;;;;;;;13.80;10.70;;;;;;;10.34;66.81;100135.05;1652775;84;21134;-73
2021/12/05 17:05:22;;;;;;;16.67;10.75;;;;;;;10.51;65.28;100138.72;1657173;82;21546;-63